Terminal Aerodrome Forecast
Issued by NWS

Home | Current Version | Previous Version | Text Only | Print | Product List | Glossary Off
Versions: 1 2 3 4 5 6 7 8 9 10 11 12 13 14 15 16 17 18 19 20 21 22

000
FTUS43 KBIS 202300
TAFDIK
TAF
KDIK 202327Z 2100/2124 VRB05KT P6SM SCT100
     FM211100 05010KT P6SM SCT100 BKN120
      TEMPO 2117/2121 4SM TSRA BKN070CB=

USA.gov is the U.S. government's official web portal to all federal, state and local government web resources and services.